sensor_id;sensor_type;location;lat;lon;timestamp;pressure;altitude;pressure_sealevel;temperature;humidity
6132;BME280;3097;42.692;23.278;2022-09-09T00:01:37;95234.28;;;18.87;83.50
6132;BME280;3097;42.692;23.278;2022-09-09T00:04:26;95234.56;;;18.86;83.43
6132;BME280;3097;42.692;23.278;2022-09-09T00:09:53;95204.28;;;18.65;83.29
6132;BME280;3097;42.692;23.278;2022-09-09T00:18:11;95223.88;;;18.77;84.09
6132;BME280;3097;42.692;23.278;2022-09-09T00:21:13;95210.03;;;18.67;84.71
6132;BME280;3097;42.692;23.278;2022-09-09T00:23:47;95209.00;;;18.68;84.39
6132;BME280;3097;42.692;23.278;2022-09-09T00:26:21;95181.03;;;18.53;84.78
6132;BME280;3097;42.692;23.278;2022-09-09T00:29:04;95208.47;;;18.66;84.87
6132;BME280;3097;42.692;23.278;2022-09-09T00:31:31;95199.06;;;18.65;84.37
6132;BME280;3097;42.692;23.278;2022-09-09T00:34:03;95191.75;;;18.62;84.49
6132;BME280;3097;42.692;23.278;2022-09-09T00:36:35;95183.91;;;18.67;84.77
6132;BME280;3097;42.692;23.278;2022-09-09T00:39:03;95172.69;;;18.66;84.98
6132;BME280;3097;42.692;23.278;2022-09-09T00:42:11;95189.94;;;18.62;84.48
6132;BME280;3097;42.692;23.278;2022-09-09T00:44:38;95186.00;;;18.54;85.25
6132;BME280;3097;42.692;23.278;2022-09-09T00:47:38;95188.34;;;18.46;85.16
6132;BME280;3097;42.692;23.278;2022-09-09T00:53:06;95191.75;;;18.36;85.86
6132;BME280;3097;42.692;23.278;2022-09-09T00:58:08;95185.22;;;18.24;86.83
6132;BME280;3097;42.692;23.278;2022-09-09T01:00:50;95176.88;;;18.16;87.34
6132;BME280;3097;42.692;23.278;2022-09-09T01:03:35;95192.53;;;18.22;88.01
6132;BME280;3097;42.692;23.278;2022-09-09T01:11:25;95190.97;;;18.26;88.04
6132;BME280;3097;42.692;23.278;2022-09-09T01:16:58;95185.22;;;18.24;87.70
6132;BME280;3097;42.692;23.278;2022-09-09T01:27:48;95180.53;;;18.21;88.36
6132;BME280;3097;42.692;23.278;2022-09-09T01:30:16;95189.38;;;18.19;88.13
6132;BME280;3097;42.692;23.278;2022-09-09T01:32:48;95189.41;;;18.25;87.81
6132;BME280;3097;42.692;23.278;2022-09-09T01:35:36;95195.41;;;18.20;87.69
6132;BME280;3097;42.692;23.278;2022-09-09T01:38:03;95194.38;;;18.16;87.62
6132;BME280;3097;42.692;23.278;2022-09-09T01:40:29;95198.50;;;18.12;88.25
6132;BME280;3097;42.692;23.278;2022-09-09T01:42:55;95202.19;;;18.11;88.00
6132;BME280;3097;42.692;23.278;2022-09-09T01:45:21;95198.78;;;18.05;87.80
6132;BME280;3097;42.692;23.278;2022-09-09T01:47:47;95207.91;;;18.08;88.22
6132;BME280;3097;42.692;23.278;2022-09-09T01:50:15;95211.31;;;18.03;88.09
6132;BME280;3097;42.692;23.278;2022-09-09T01:52:42;95210.53;;;18.03;87.78
6132;BME280;3097;42.692;23.278;2022-09-09T01:55:09;95208.97;;;18.02;87.48
6132;BME280;3097;42.692;23.278;2022-09-09T02:00:45;95211.81;;;18.00;87.90
6132;BME280;3097;42.692;23.278;2022-09-09T02:03:21;95204.25;;;17.89;88.30
6132;BME280;3097;42.692;23.278;2022-09-09T02:05:59;95212.31;;;17.97;88.31
6132;BME280;3097;42.692;23.278;2022-09-09T02:08:36;95211.03;;;17.95;88.08
6132;BME280;3097;42.692;23.278;2022-09-09T02:11:14;95201.91;;;17.92;88.58
6132;BME280;3097;42.692;23.278;2022-09-09T02:13:43;95191.47;;;17.97;88.35
6132;BME280;3097;42.692;23.278;2022-09-09T02:21:11;95182.59;;;17.88;88.55
6132;BME280;3097;42.692;23.278;2022-09-09T02:23:41;95184.16;;;17.84;88.98
6132;BME280;3097;42.692;23.278;2022-09-09T02:26:09;95194.03;;;17.82;88.97
6132;BME280;3097;42.692;23.278;2022-09-09T02:28:37;95187.00;;;17.83;89.00
6132;BME280;3097;42.692;23.278;2022-09-09T02:31:04;95200.31;;;17.86;89.14
6132;BME280;3097;42.692;23.278;2022-09-09T02:33:35;95200.84;;;17.83;89.30
6132;BME280;3097;42.692;23.278;2022-09-09T02:36:03;95202.41;;;17.74;89.44
6132;BME280;3097;42.692;23.278;2022-09-09T02:38:37;95205.25;;;17.77;89.15
6132;BME280;3097;42.692;23.278;2022-09-09T02:41:06;95203.69;;;17.71;89.36
6132;BME280;3097;42.692;23.278;2022-09-09T02:43:35;95214.91;;;17.72;89.62
6132;BME280;3097;42.692;23.278;2022-09-09T02:54:31;95208.38;;;17.64;90.16
6132;BME280;3097;42.692;23.278;2022-09-09T02:57:04;95194.47;;;17.49;90.24
6132;BME280;3097;42.692;23.278;2022-09-09T02:59:31;95188.72;;;17.52;90.14
6132;BME280;3097;42.692;23.278;2022-09-09T03:01:57;95211.50;;;17.66;89.65
6132;BME280;3097;42.692;23.278;2022-09-09T03:04:22;95210.19;;;17.64;90.03
6132;BME280;3097;42.692;23.278;2022-09-09T03:06:49;95210.72;;;17.66;89.62
6132;BME280;3097;42.692;23.278;2022-09-09T03:09:15;95212.78;;;17.64;89.39
6132;BME280;3097;42.692;23.278;2022-09-09T03:11:40;95218.25;;;17.62;89.42
6132;BME280;3097;42.692;23.278;2022-09-09T03:14:06;95207.00;;;17.57;89.68
6132;BME280;3097;42.692;23.278;2022-09-09T03:16:31;95206.97;;;17.52;89.20
6132;BME280;3097;42.692;23.278;2022-09-09T03:18:58;95208.81;;;17.51;89.69
6132;BME280;3097;42.692;23.278;2022-09-09T03:21:24;95213.25;;;17.51;90.02
6132;BME280;3097;42.692;23.278;2022-09-09T03:23:49;95193.94;;;17.47;89.94
6132;BME280;3097;42.692;23.278;2022-09-09T03:26:15;95208.53;;;17.53;89.75
6132;BME280;3097;42.692;23.278;2022-09-09T03:28:41;95212.19;;;17.47;89.85
6132;BME280;3097;42.692;23.278;2022-09-09T03:31:07;95199.13;;;17.41;89.92
6132;BME280;3097;42.692;23.278;2022-09-09T03:33:38;95209.56;;;17.47;90.34
6132;BME280;3097;42.692;23.278;2022-09-09T03:36:05;95208.00;;;17.46;90.09
6132;BME280;3097;42.692;23.278;2022-09-09T03:38:31;95210.59;;;17.46;90.42
6132;BME280;3097;42.692;23.278;2022-09-09T03:40:57;95178.78;;;17.28;90.22
6132;BME280;3097;42.692;23.278;2022-09-09T03:43:24;95204.59;;;17.45;89.69
6132;BME280;3097;42.692;23.278;2022-09-09T03:45:50;95209.03;;;17.45;89.90
6132;BME280;3097;42.692;23.278;2022-09-09T03:48:16;95205.91;;;17.42;89.77
6132;BME280;3097;42.692;23.278;2022-09-09T03:50:46;95208.50;;;17.37;90.11
6132;BME280;3097;42.692;23.278;2022-09-09T03:53:13;95212.09;;;17.26;90.47
6132;BME280;3097;42.692;23.278;2022-09-09T03:55:39;95211.09;;;17.32;89.82
6132;BME280;3097;42.692;23.278;2022-09-09T03:58:08;95208.97;;;17.24;90.33
6132;BME280;3097;42.692;23.278;2022-09-09T04:00:33;95204.78;;;17.23;90.73
6132;BME280;3097;42.692;23.278;2022-09-09T04:02:59;95213.16;;;17.30;90.73
6132;BME280;3097;42.692;23.278;2022-09-09T04:05:24;95219.94;;;17.31;90.51
6132;BME280;3097;42.692;23.278;2022-09-09T04:07:50;95202.72;;;17.25;90.07
6132;BME280;3097;42.692;23.278;2022-09-09T04:10:16;95220.47;;;17.38;90.13
6132;BME280;3097;42.692;23.278;2022-09-09T04:12:42;95218.66;;;17.39;89.65
6132;BME280;3097;42.692;23.278;2022-09-09T04:15:07;95212.91;;;17.32;90.18
6132;BME280;3097;42.692;23.278;2022-09-09T04:17:33;95217.38;;;17.36;90.25
6132;BME280;3097;42.692;23.278;2022-09-09T04:19:58;95216.84;;;17.39;90.26
6132;BME280;3097;42.692;23.278;2022-09-09T04:22:24;95210.91;;;17.49;89.81
6132;BME280;3097;42.692;23.278;2022-09-09T04:24:49;95213.22;;;17.46;89.84
6132;BME280;3097;42.692;23.278;2022-09-09T04:27:15;95215.31;;;17.49;89.91
6132;BME280;3097;42.692;23.278;2022-09-09T04:29:40;95213.19;;;17.40;89.62
6132;BME280;3097;42.692;23.278;2022-09-09T04:32:05;95221.56;;;17.48;90.05
6132;BME280;3097;42.692;23.278;2022-09-09T04:34:31;95220.00;;;17.52;90.40
6132;BME280;3097;42.692;23.278;2022-09-09T04:36:58;95221.34;;;17.59;89.76
6132;BME280;3097;42.692;23.278;2022-09-09T04:39:23;95220.56;;;17.59;89.46
6132;BME280;3097;42.692;23.278;2022-09-09T04:41:49;95224.25;;;17.68;89.51
6132;BME280;3097;42.692;23.278;2022-09-09T04:44:15;95218.81;;;17.74;89.34
6132;BME280;3097;42.692;23.278;2022-09-09T04:46:40;95219.09;;;17.78;89.07
6132;BME280;3097;42.692;23.278;2022-09-09T04:49:06;95208.41;;;17.85;88.77
6132;BME280;3097;42.692;23.278;2022-09-09T04:51:32;95211.78;;;17.90;88.81
6132;BME280;3097;42.692;23.278;2022-09-09T04:53:57;95203.47;;;17.98;88.86
6132;BME280;3097;42.692;23.278;2022-09-09T04:56:23;95206.09;;;18.03;88.83
6132;BME280;3097;42.692;23.278;2022-09-09T04:58:48;95211.31;;;18.13;88.85
6132;BME280;3097;42.692;23.278;2022-09-09T05:01:17;95208.44;;;18.35;88.78
6132;BME280;3097;42.692;23.278;2022-09-09T05:03:46;95176.56;;;18.89;87.40
6132;BME280;3097;42.692;23.278;2022-09-09T05:06:17;95196.78;;;20.31;81.88
6132;BME280;3097;42.692;23.278;2022-09-09T05:08:43;95183.19;;;21.58;76.67
6132;BME280;3097;42.692;23.278;2022-09-09T05:11:23;95187.03;;;22.87;69.35
6132;BME280;3097;42.692;23.278;2022-09-09T05:13:50;95204.63;;;23.96;65.64
6132;BME280;3097;42.692;23.278;2022-09-09T05:16:16;95206.44;;;24.98;62.46
6132;BME280;3097;42.692;23.278;2022-09-09T05:18:43;95197.28;;;26.00;59.63
6132;BME280;3097;42.692;23.278;2022-09-09T05:21:13;95191.41;;;27.02;55.95
6132;BME280;3097;42.692;23.278;2022-09-09T05:23:39;95178.03;;;27.86;52.14
6132;BME280;3097;42.692;23.278;2022-09-09T05:26:05;95183.44;;;28.52;49.47
6132;BME280;3097;42.692;23.278;2022-09-09T05:28:34;95170.41;;;29.04;48.33
6132;BME280;3097;42.692;23.278;2022-09-09T05:31:02;95188.56;;;29.63;46.62
6132;BME280;3097;42.692;23.278;2022-09-09T05:33:31;95191.94;;;30.52;45.10
6132;BME280;3097;42.692;23.278;2022-09-09T05:36:03;95173.28;;;31.11;43.41
6132;BME280;3097;42.692;23.278;2022-09-09T05:38:31;95154.22;;;31.60;42.16
6132;BME280;3097;42.692;23.278;2022-09-09T05:40:57;95182.66;;;32.07;40.86
6132;BME280;3097;42.692;23.278;2022-09-09T05:43:23;95183.09;;;32.28;39.82
6132;BME280;3097;42.692;23.278;2022-09-09T05:45:59;95186.44;;;32.83;39.56
6132;BME280;3097;42.692;23.278;2022-09-09T05:48:30;95190.44;;;33.38;38.31
6132;BME280;3097;42.692;23.278;2022-09-09T05:50:57;95194.25;;;33.90;37.18
6132;BME280;3097;42.692;23.278;2022-09-09T05:53:23;95189.94;;;34.11;35.53
6132;BME280;3097;42.692;23.278;2022-09-09T05:55:49;95182.53;;;34.01;35.61
6132;BME280;3097;42.692;23.278;2022-09-09T05:58:14;95179.25;;;34.11;35.69
6132;BME280;3097;42.692;23.278;2022-09-09T06:00:42;95186.34;;;34.64;35.08
6132;BME280;3097;42.692;23.278;2022-09-09T06:03:11;95168.53;;;34.78;34.72
6132;BME280;3097;42.692;23.278;2022-09-09T06:05:40;95202.69;;;35.25;34.45
6132;BME280;3097;42.692;23.278;2022-09-09T06:08:06;95202.03;;;35.43;33.57
6132;BME280;3097;42.692;23.278;2022-09-09T06:10:32;95195.16;;;35.45;33.36
6132;BME280;3097;42.692;23.278;2022-09-09T06:12:59;95191.19;;;35.25;33.44
6132;BME280;3097;42.692;23.278;2022-09-09T06:15:25;95197.19;;;35.15;33.55
6132;BME280;3097;42.692;23.278;2022-09-09T06:17:56;95198.19;;;35.40;33.47
6132;BME280;3097;42.692;23.278;2022-09-09T06:20:22;95201.31;;;35.49;32.64
6132;BME280;3097;42.692;23.278;2022-09-09T06:22:47;95198.34;;;35.65;32.49
6132;BME280;3097;42.692;23.278;2022-09-09T06:25:16;95190.91;;;36.02;31.98
6132;BME280;3097;42.692;23.278;2022-09-09T06:27:48;95197.31;;;36.60;30.76
6132;BME280;3097;42.692;23.278;2022-09-09T06:30:14;95205.09;;;37.07;30.67
6132;BME280;3097;42.692;23.278;2022-09-09T06:32:40;95195.88;;;37.08;29.98
6132;BME280;3097;42.692;23.278;2022-09-09T06:35:06;95192.03;;;36.95;30.28
6132;BME280;3097;42.692;23.278;2022-09-09T06:37:31;95187.31;;;36.53;30.03
6132;BME280;3097;42.692;23.278;2022-09-09T06:39:57;95190.78;;;36.61;30.85
6132;BME280;3097;42.692;23.278;2022-09-09T06:42:22;95183.44;;;36.43;30.12
6132;BME280;3097;42.692;23.278;2022-09-09T06:44:48;95176.88;;;36.34;30.58
6132;BME280;3097;42.692;23.278;2022-09-09T06:47:13;95181.97;;;36.64;30.33
6132;BME280;3097;42.692;23.278;2022-09-09T06:49:39;95184.59;;;36.50;30.39
6132;BME280;3097;42.692;23.278;2022-09-09T06:52:04;95199.66;;;36.68;30.16
6132;BME280;3097;42.692;23.278;2022-09-09T06:54:30;95204.31;;;37.07;30.89
6132;BME280;3097;42.692;23.278;2022-09-09T06:56:55;95205.06;;;36.93;30.22
6132;BME280;3097;42.692;23.278;2022-09-09T06:59:21;95209.19;;;36.52;30.73
6132;BME280;3097;42.692;23.278;2022-09-09T07:01:46;95204.78;;;36.08;31.49
6132;BME280;3097;42.692;23.278;2022-09-09T07:04:12;95207.38;;;35.39;32.31
6132;BME280;3097;42.692;23.278;2022-09-09T07:06:41;95215.78;;;34.60;32.78
6132;BME280;3097;42.692;23.278;2022-09-09T07:09:10;95210.06;;;33.72;34.32
6132;BME280;3097;42.692;23.278;2022-09-09T07:11:44;95210.41;;;33.02;36.89
6132;BME280;3097;42.692;23.278;2022-09-09T07:14:10;95194.75;;;32.58;36.91
6132;BME280;3097;42.692;23.278;2022-09-09T07:16:40;95199.75;;;32.21;39.98
6132;BME280;3097;42.692;23.278;2022-09-09T07:19:06;95202.19;;;31.60;38.94
6132;BME280;3097;42.692;23.278;2022-09-09T07:21:33;95205.25;;;31.27;41.15
6132;BME280;3097;42.692;23.278;2022-09-09T07:23:59;95179.97;;;30.90;41.45
6132;BME280;3097;42.692;23.278;2022-09-09T07:26:27;95199.44;;;30.78;41.04
6132;BME280;3097;42.692;23.278;2022-09-09T07:28:53;95194.34;;;30.57;41.79
6132;BME280;3097;42.692;23.278;2022-09-09T07:31:21;95189.59;;;30.51;41.79
6132;BME280;3097;42.692;23.278;2022-09-09T07:33:47;95193.69;;;30.20;42.66
6132;BME280;3097;42.692;23.278;2022-09-09T07:36:19;95188.41;;;30.08;41.90
6132;BME280;3097;42.692;23.278;2022-09-09T07:38:52;95183.59;;;29.74;44.50
6132;BME280;3097;42.692;23.278;2022-09-09T07:41:21;95186.91;;;29.83;43.34
6132;BME280;3097;42.692;23.278;2022-09-09T07:43:48;95186.66;;;29.88;43.63
6132;BME280;3097;42.692;23.278;2022-09-09T07:46:16;95196.47;;;30.12;43.80
6132;BME280;3097;42.692;23.278;2022-09-09T07:48:46;95196.63;;;30.31;43.94
6132;BME280;3097;42.692;23.278;2022-09-09T07:51:15;95202.13;;;30.50;43.93
6132;BME280;3097;42.692;23.278;2022-09-09T07:53:45;95200.50;;;30.61;43.26
6132;BME280;3097;42.692;23.278;2022-09-09T07:56:30;95193.38;;;30.37;41.61
6132;BME280;3097;42.692;23.278;2022-09-09T07:58:57;95209.16;;;29.90;43.99
6132;BME280;3097;42.692;23.278;2022-09-09T08:04:15;95207.69;;;29.20;45.01
6132;BME280;3097;42.692;23.278;2022-09-09T08:06:44;95207.59;;;28.71;45.67
6132;BME280;3097;42.692;23.278;2022-09-09T08:09:11;95207.91;;;28.37;47.29
6132;BME280;3097;42.692;23.278;2022-09-09T08:11:39;95203.06;;;28.39;53.68
6132;BME280;3097;42.692;23.278;2022-09-09T08:14:05;95199.66;;;28.50;49.56
6132;BME280;3097;42.692;23.278;2022-09-09T08:16:34;95201.59;;;28.62;54.12
6132;BME280;3097;42.692;23.278;2022-09-09T08:19:02;95191.06;;;28.54;53.40
6132;BME280;3097;42.692;23.278;2022-09-09T08:21:30;95195.91;;;28.52;46.88
6132;BME280;3097;42.692;23.278;2022-09-09T08:23:58;95203.16;;;28.63;51.87
6132;BME280;3097;42.692;23.278;2022-09-09T08:26:32;95201.63;;;28.74;53.67
6132;BME280;3097;42.692;23.278;2022-09-09T08:29:00;95195.63;;;28.65;47.60
6132;BME280;3097;42.692;23.278;2022-09-09T08:31:30;95191.38;;;28.40;45.57
6132;BME280;3097;42.692;23.278;2022-09-09T08:33:57;95113.41;;;27.58;48.33
6132;BME280;3097;42.692;23.278;2022-09-09T08:36:26;95189.09;;;27.88;48.41
6132;BME280;3097;42.692;23.278;2022-09-09T08:38:54;95194.31;;;27.76;48.65
6132;BME280;3097;42.692;23.278;2022-09-09T08:49:56;95182.84;;;27.34;52.55
6132;BME280;3097;42.692;23.278;2022-09-09T08:52:29;95178.41;;;27.47;49.28
6132;BME280;3097;42.692;23.278;2022-09-09T08:55:01;95169.56;;;27.43;49.81
6132;BME280;3097;42.692;23.278;2022-09-09T08:57:30;95178.09;;;27.57;47.82
6132;BME280;3097;42.692;23.278;2022-09-09T08:59:58;95185.59;;;27.46;50.17
6132;BME280;3097;42.692;23.278;2022-09-09T09:05:28;95179.19;;;27.47;49.39
6132;BME280;3097;42.692;23.278;2022-09-09T09:08:31;95181.53;;;27.49;50.68
6132;BME280;3097;42.692;23.278;2022-09-09T09:11:03;95182.72;;;27.60;52.20
6132;BME280;3097;42.692;23.278;2022-09-09T09:16:23;95162.16;;;27.86;51.80
6132;BME280;3097;42.692;23.278;2022-09-09T09:18:53;95173.72;;;28.02;51.44
6132;BME280;3097;42.692;23.278;2022-09-09T09:21:43;95178.03;;;28.07;52.40
6132;BME280;3097;42.692;23.278;2022-09-09T09:24:20;95171.50;;;28.04;52.59
6132;BME280;3097;42.692;23.278;2022-09-09T09:26:49;95170.53;;;28.09;52.30
6132;BME280;3097;42.692;23.278;2022-09-09T09:29:17;95179.72;;;28.11;53.55
6132;BME280;3097;42.692;23.278;2022-09-09T09:32:02;95176.63;;;28.09;49.83
6132;BME280;3097;42.692;23.278;2022-09-09T09:34:28;95169.06;;;27.99;48.53
6132;BME280;3097;42.692;23.278;2022-09-09T09:36:58;95170.56;;;27.88;49.86
6132;BME280;3097;42.692;23.278;2022-09-09T09:39:32;95163.69;;;27.87;49.51
6132;BME280;3097;42.692;23.278;2022-09-09T09:42:10;95151.66;;;27.90;48.80
6132;BME280;3097;42.692;23.278;2022-09-09T09:44:40;95157.16;;;27.85;48.39
6132;BME280;3097;42.692;23.278;2022-09-09T09:47:08;95151.66;;;27.69;49.39
6132;BME280;3097;42.692;23.278;2022-09-09T09:49:34;95140.53;;;27.55;48.42
6132;BME280;3097;42.692;23.278;2022-09-09T09:52:01;95156.50;;;27.38;48.68
6132;BME280;3097;42.692;23.278;2022-09-09T09:54:29;95150.53;;;27.20;50.92
6132;BME280;3097;42.692;23.278;2022-09-09T09:57:10;95148.31;;;27.22;50.40
6132;BME280;3097;42.692;23.278;2022-09-09T09:59:37;95140.03;;;27.03;51.16
6132;BME280;3097;42.692;23.278;2022-09-09T10:02:20;95147.66;;;27.04;51.18
6132;BME280;3097;42.692;23.278;2022-09-09T10:04:48;95143.91;;;27.05;51.83
6132;BME280;3097;42.692;23.278;2022-09-09T10:07:21;95148.25;;;27.10;53.21
6132;BME280;3097;42.692;23.278;2022-09-09T10:09:55;95136.75;;;27.06;55.77
6132;BME280;3097;42.692;23.278;2022-09-09T10:17:54;95161.44;;;27.18;53.49
6132;BME280;3097;42.692;23.278;2022-09-09T10:20:43;95158.81;;;27.10;54.17
6132;BME280;3097;42.692;23.278;2022-09-09T10:26:54;95165.13;;;26.88;54.87
6132;BME280;3097;42.692;23.278;2022-09-09T10:34:58;95155.97;;;26.77;55.28
6132;BME280;3097;42.692;23.278;2022-09-09T10:42:51;95138.63;;;26.41;55.92
6132;BME280;3097;42.692;23.278;2022-09-09T10:45:41;95167.69;;;26.58;55.61
6132;BME280;3097;42.692;23.278;2022-09-09T10:56:41;95173.59;;;26.55;58.49
6132;BME280;3097;42.692;23.278;2022-09-09T10:59:16;95163.19;;;26.59;55.43
6132;BME280;3097;42.692;23.278;2022-09-09T11:01:52;95167.69;;;26.58;55.47
6132;BME280;3097;42.692;23.278;2022-09-09T11:04:41;95151.72;;;26.38;54.69
6132;BME280;3097;42.692;23.278;2022-09-09T11:07:10;95138.66;;;26.15;55.56
6132;BME280;3097;42.692;23.278;2022-09-09T11:09:42;95166.97;;;26.15;56.22
6132;BME280;3097;42.692;23.278;2022-09-09T11:12:18;95161.38;;;25.99;56.79
6132;BME280;3097;42.692;23.278;2022-09-09T11:17:23;95159.50;;;25.91;57.81
6132;BME280;3097;42.692;23.278;2022-09-09T11:19:52;95150.50;;;25.92;58.81
6132;BME280;3097;42.692;23.278;2022-09-09T11:22:37;95148.59;;;26.01;59.37
6132;BME280;3097;42.692;23.278;2022-09-09T11:26:11;95148.47;;;26.06;58.64
6132;BME280;3097;42.692;23.278;2022-09-09T11:29:07;95139.28;;;26.12;60.06
6132;BME280;3097;42.692;23.278;2022-09-09T11:40:16;95107.09;;;26.19;60.26
6132;BME280;3097;42.692;23.278;2022-09-09T11:42:43;95105.84;;;26.25;60.84
6132;BME280;3097;42.692;23.278;2022-09-09T11:45:10;95096.34;;;26.41;59.72
6132;BME280;3097;42.692;23.278;2022-09-09T11:47:36;95085.75;;;26.41;60.54
6132;BME280;3097;42.692;23.278;2022-09-09T11:52:45;95000.44;;;26.24;58.86
6132;BME280;3097;42.692;23.278;2022-09-09T11:55:28;95067.13;;;26.76;58.86
6132;BME280;3097;42.692;23.278;2022-09-09T11:58:04;95062.13;;;26.83;58.47
6132;BME280;3097;42.692;23.278;2022-09-09T12:00:38;95072.34;;;26.84;59.21
6132;BME280;3097;42.692;23.278;2022-09-09T12:03:06;95045.19;;;26.75;57.71
6132;BME280;3097;42.692;23.278;2022-09-09T12:05:57;95072.50;;;26.96;58.81
6132;BME280;3097;42.692;23.278;2022-09-09T12:08:28;95065.16;;;27.02;59.16
6132;BME280;3097;42.692;23.278;2022-09-09T12:10:58;95052.19;;;27.09;59.64
6132;BME280;3097;42.692;23.278;2022-09-09T12:13:28;95054.47;;;27.19;58.41
6132;BME280;3097;42.692;23.278;2022-09-09T12:15:57;95037.66;;;27.15;58.44
6132;BME280;3097;42.692;23.278;2022-09-09T12:18:23;95045.44;;;27.20;58.50
6132;BME280;3097;42.692;23.278;2022-09-09T12:23:54;95048.38;;;27.40;58.56
6132;BME280;3097;42.692;23.278;2022-09-09T12:26:41;95031.47;;;27.53;58.31
6132;BME280;3097;42.692;23.278;2022-09-09T12:37:06;95032.25;;;27.53;56.44
6132;BME280;3097;42.692;23.278;2022-09-09T12:39:40;95024.78;;;27.55;56.45
6132;BME280;3097;42.692;23.278;2022-09-09T12:42:20;95007.50;;;27.49;57.05
6132;BME280;3097;42.692;23.278;2022-09-09T12:45:03;95034.84;;;27.62;55.99
6132;BME280;3097;42.692;23.278;2022-09-09T12:47:49;95028.00;;;27.61;56.54
6132;BME280;3097;42.692;23.278;2022-09-09T12:50:17;95027.59;;;27.71;55.51
6132;BME280;3097;42.692;23.278;2022-09-09T12:52:44;95037.41;;;27.70;55.91
6132;BME280;3097;42.692;23.278;2022-09-09T12:55:20;95022.41;;;27.74;56.62
6132;BME280;3097;42.692;23.278;2022-09-09T12:57:47;95025.34;;;27.82;56.33
6132;BME280;3097;42.692;23.278;2022-09-09T13:00:21;95025.91;;;27.87;56.49
6132;BME280;3097;42.692;23.278;2022-09-09T13:02:53;95011.44;;;27.97;54.69
6132;BME280;3097;42.692;23.278;2022-09-09T13:08:01;95013.03;;;27.77;55.59
6132;BME280;3097;42.692;23.278;2022-09-09T13:10:29;95013.38;;;27.76;55.99
6132;BME280;3097;42.692;23.278;2022-09-09T13:12:55;95007.72;;;27.65;56.55
6132;BME280;3097;42.692;23.278;2022-09-09T13:15:24;95013.00;;;27.65;56.49
6132;BME280;3097;42.692;23.278;2022-09-09T13:17:58;94997.91;;;27.65;57.34
6132;BME280;3097;42.692;23.278;2022-09-09T13:20:26;94988.16;;;27.57;56.60
6132;BME280;3097;42.692;23.278;2022-09-09T13:22:53;94974.50;;;27.47;56.81
6132;BME280;3097;42.692;23.278;2022-09-09T13:25:24;94978.97;;;27.55;56.60
6132;BME280;3097;42.692;23.278;2022-09-09T13:27:59;94971.53;;;27.48;55.70
6132;BME280;3097;42.692;23.278;2022-09-09T13:30:29;94981.34;;;27.48;56.52
6132;BME280;3097;42.692;23.278;2022-09-09T13:38:15;94964.13;;;27.42;56.21
6132;BME280;3097;42.692;23.278;2022-09-09T13:41:05;94970.38;;;27.37;55.74
6132;BME280;3097;42.692;23.278;2022-09-09T13:43:43;94971.81;;;27.34;56.58
6132;BME280;3097;42.692;23.278;2022-09-09T13:49:22;94961.31;;;27.38;56.77
6132;BME280;3097;42.692;23.278;2022-09-09T13:51:49;94960.16;;;27.48;51.25
6132;BME280;3097;42.692;23.278;2022-09-09T13:54:18;94946.81;;;27.23;53.32
6132;BME280;3097;42.692;23.278;2022-09-09T13:56:44;94930.63;;;27.25;54.21
6132;BME280;3097;42.692;23.278;2022-09-09T13:59:15;94954.84;;;27.48;53.97
6132;BME280;3097;42.692;23.278;2022-09-09T14:01:42;94957.31;;;27.53;54.72
6132;BME280;3097;42.692;23.278;2022-09-09T14:04:09;94964.56;;;27.64;55.72
6132;BME280;3097;42.692;23.278;2022-09-09T14:06:38;94941.63;;;27.48;55.09
6132;BME280;3097;42.692;23.278;2022-09-09T14:09:09;94951.63;;;27.63;51.73
6132;BME280;3097;42.692;23.278;2022-09-09T14:11:35;94951.63;;;27.63;52.52
6132;BME280;3097;42.692;23.278;2022-09-09T14:14:01;94950.28;;;27.57;50.64
6132;BME280;3097;42.692;23.278;2022-09-09T14:16:26;94950.34;;;27.48;50.50
6132;BME280;3097;42.692;23.278;2022-09-09T14:18:53;94953.84;;;27.40;51.74
6132;BME280;3097;42.692;23.278;2022-09-09T14:21:18;94944.03;;;27.41;51.37
6132;BME280;3097;42.692;23.278;2022-09-09T14:23:44;94932.41;;;27.33;52.39
6132;BME280;3097;42.692;23.278;2022-09-09T14:26:09;94936.94;;;27.32;52.27
6132;BME280;3097;42.692;23.278;2022-09-09T14:28:36;94946.09;;;27.35;52.55
6132;BME280;3097;42.692;23.278;2022-09-09T14:31:04;94939.03;;;27.39;52.76
6132;BME280;3097;42.692;23.278;2022-09-09T14:33:30;94942.94;;;27.42;52.41
6132;BME280;3097;42.692;23.278;2022-09-09T14:36:01;94947.78;;;27.40;52.60
6132;BME280;3097;42.692;23.278;2022-09-09T14:38:31;94946.66;;;27.41;53.10
6132;BME280;3097;42.692;23.278;2022-09-09T14:40:56;94929.97;;;27.28;53.91
6132;BME280;3097;42.692;23.278;2022-09-09T14:43:23;94921.81;;;27.33;54.52
6132;BME280;3097;42.692;23.278;2022-09-09T14:45:49;94946.88;;;27.35;54.69
6132;BME280;3097;42.692;23.278;2022-09-09T14:48:16;94939.38;;;27.38;55.26
6132;BME280;3097;42.692;23.278;2022-09-09T14:50:42;94863.88;;;26.78;55.17
6132;BME280;3097;42.692;23.278;2022-09-09T14:53:08;94939.47;;;27.08;55.68
6132;BME280;3097;42.692;23.278;2022-09-09T14:55:36;94930.97;;;26.73;56.05
6132;BME280;3097;42.692;23.278;2022-09-09T14:58:03;94936.06;;;26.57;56.88
6132;BME280;3097;42.692;23.278;2022-09-09T15:00:29;94945.59;;;26.50;56.77
6132;BME280;3097;42.692;23.278;2022-09-09T15:02:55;94959.13;;;26.48;57.12
6132;BME280;3097;42.692;23.278;2022-09-09T15:05:21;94959.91;;;26.49;57.21
6132;BME280;3097;42.692;23.278;2022-09-09T15:07:49;94964.59;;;26.43;57.34
6132;BME280;3097;42.692;23.278;2022-09-09T15:10:15;94946.44;;;26.33;57.35
6132;BME280;3097;42.692;23.278;2022-09-09T15:12:42;94968.63;;;26.49;57.29
6132;BME280;3097;42.692;23.278;2022-09-09T15:15:09;94961.16;;;26.51;56.57
6132;BME280;3097;42.692;23.278;2022-09-09T15:17:34;94949.91;;;26.54;56.46
6132;BME280;3097;42.692;23.278;2022-09-09T15:20:03;94952.13;;;26.52;56.73
6132;BME280;3097;42.692;23.278;2022-09-09T15:22:31;94960.44;;;26.63;56.52
6132;BME280;3097;42.692;23.278;2022-09-09T15:24:56;94963.50;;;26.74;56.26
6132;BME280;3097;42.692;23.278;2022-09-09T15:27:22;94960.34;;;26.80;56.77
6132;BME280;3097;42.692;23.278;2022-09-09T15:29:49;94953.94;;;26.90;57.09
6132;BME280;3097;42.692;23.278;2022-09-09T15:32:15;94878.13;;;26.44;56.80
6132;BME280;3097;42.692;23.278;2022-09-09T15:34:40;94955.91;;;26.93;56.63